Time;durP1;ratioP1;P1;durP2;ratioP2;P2;SDS_P1;SDS_P2;PMS_P1;PMS_P2;Temp;Humidity;BMP_temperature;BMP_pressure;BME280_temperature;BME280_humidity;BME280_pressure;Samples;Min_cycle;Max_cycle;Signal;HPM_P1;HPM_P2
2023/05/19 00:01:12;;;;;;;5.82;3.72;;;11.20;99.90;;;;;;5083865;28;20642;-49
2023/05/19 00:03:39;;;;;;;6.13;3.65;;;;;;;;;;5093232;28;20189;-46
2023/05/19 00:06:08;;;;;;;6.13;3.72;;;11.30;99.90;;;;;;5092763;28;20270;-46
2023/05/19 00:08:37;;;;;;;9.60;3.83;;;11.30;99.90;;;;;;5092801;28;20173;-48
2023/05/19 00:11:03;;;;;;;9.30;3.85;;;11.40;99.90;;;;;;5072276;28;20224;-46
2023/05/19 00:13:29;;;;;;;7.03;3.30;;;11.40;99.90;;;;;;5071872;28;20635;-49
2023/05/19 00:15:55;;;;;;;9.55;4.07;;;11.30;99.90;;;;;;5079487;28;20226;-48
2023/05/19 00:18:21;;;;;;;6.10;3.70;;;11.30;99.90;;;;;;5092746;28;20630;-48
2023/05/19 00:20:47;;;;;;;6.20;3.85;;;11.30;99.90;;;;;;5093033;28;20173;-46
2023/05/19 00:23:13;;;;;;;5.53;3.30;;;;;;;;;;5075642;28;20182;-46
2023/05/19 00:25:39;;;;;;;9.55;3.90;;;11.30;99.90;;;;;;5072821;28;20244;-47
2023/05/19 00:28:05;;;;;;;6.60;3.30;;;;;;;;;;5072629;28;20177;-49
2023/05/19 00:30:31;;;;;;;7.65;3.60;;;11.20;99.90;;;;;;5072662;28;20638;-46
2023/05/19 00:32:57;;;;;;;7.88;3.63;;;;;;;;;;5092432;28;20181;-50
2023/05/19 00:35:23;;;;;;;6.90;4.22;;;11.20;99.90;;;;;;5092680;28;20165;-48
2023/05/19 00:37:48;;;;;;;6.63;3.60;;;11.10;99.90;;;;;;5092417;28;20523;-48
2023/05/19 00:40:14;;;;;;;6.38;4.13;;;;;;;;;;5092313;28;20162;-46
2023/05/19 00:42:41;;;;;;;9.75;4.30;;;11.20;99.90;;;;;;5092654;28;20168;-48
2023/05/19 00:45:07;;;;;;;7.57;3.42;;;11.10;99.90;;;;;;5088755;28;20173;-46
2023/05/19 00:47:32;;;;;;;9.90;3.63;;;11.00;99.90;;;;;;5088716;28;20256;-46
2023/05/19 00:49:58;;;;;;;5.40;3.28;;;10.90;99.90;;;;;;5091189;28;20605;-47
2023/05/19 00:52:25;;;;;;;8.02;4.10;;;10.90;99.90;;;;;;5091931;28;20678;-48
2023/05/19 00:54:52;;;;;;;7.35;3.78;;;10.90;99.90;;;;;;5092128;28;20200;-48
2023/05/19 00:57:19;;;;;;;6.57;3.60;;;11.00;99.90;;;;;;5092268;28;20184;-46
2023/05/19 00:59:45;;;;;;;9.50;3.60;;;;;;;;;;5089490;28;20173;-46
2023/05/19 01:02:11;;;;;;;8.95;4.28;;;11.00;99.90;;;;;;5071242;28;20692;-46
2023/05/19 01:04:38;;;;;;;10.32;3.53;;;11.00;99.90;;;;;;5071588;28;20177;-46
2023/05/19 01:07:04;;;;;;;11.30;4.25;;;11.00;99.90;;;;;;5071298;28;20619;-47
2023/05/19 01:09:31;;;;;;;6.35;3.50;;;11.00;99.90;;;;;;5071591;28;20595;-46
2023/05/19 01:11:56;;;;;;;6.57;4.20;;;11.00;99.90;;;;;;5071448;28;20208;-48
2023/05/19 01:14:22;;;;;;;6.18;3.78;;;11.10;99.90;;;;;;5070547;28;20244;-46
2023/05/19 01:17:04;;;;;;;7.65;3.55;;;11.00;99.90;;;;;;5080193;28;20640;-49
2023/05/19 01:20:05;;;;;;;4.68;3.00;;;10.90;99.90;;;;;;5071733;28;20174;-47
2023/05/19 01:22:42;;;;;;;7.15;3.80;;;10.80;99.90;;;;;;5071527;28;20201;-47
2023/05/19 01:25:27;;;;;;;5.93;3.20;;;10.80;99.90;;;;;;5071333;28;20166;-45
2023/05/19 01:28:11;;;;;;;7.60;4.30;;;;;;;;;;5071551;28;20170;-46
2023/05/19 01:30:42;;;;;;;6.97;3.70;;;10.80;99.90;;;;;;5079445;28;20227;-46
2023/05/19 01:33:13;;;;;;;7.90;3.97;;;10.90;99.90;;;;;;5085632;28;20560;-45
2023/05/19 01:35:40;;;;;;;7.72;3.90;;;10.80;99.90;;;;;;5083441;28;20223;-45
2023/05/19 01:38:09;;;;;;;9.63;3.30;;;10.70;99.90;;;;;;5091423;28;20165;-46
2023/05/19 01:40:36;;;;;;;5.63;3.50;;;10.70;99.90;;;;;;5091564;28;20183;-48
2023/05/19 01:43:02;;;;;;;9.63;3.90;;;;;;;;;;5091549;28;20173;-49
2023/05/19 01:45:29;;;;;;;8.85;3.83;;;10.70;99.90;;;;;;5088963;28;20699;-48
2023/05/19 01:47:58;;;;;;;10.05;3.95;;;10.70;99.90;;;;;;5075107;28;20181;-47
2023/05/19 01:50:24;;;;;;;5.65;4.15;;;;;;;;;;5070053;28;20188;-47
2023/05/19 01:52:50;;;;;;;12.48;4.20;;;10.70;99.90;;;;;;5071049;28;20208;-46
2023/05/19 01:55:15;;;;;;;9.93;3.38;;;10.70;99.90;;;;;;5070997;28;20197;-47
2023/05/19 01:58:19;;;;;;;7.30;3.47;;;10.60;99.90;;;;;;5071559;28;20201;-47
2023/05/19 02:00:55;;;;;;;6.80;3.30;;;10.60;99.90;;;;;;5080013;28;20179;-45
2023/05/19 02:03:46;;;;;;;9.35;3.80;;;10.50;99.90;;;;;;5091210;28;20264;-46
2023/05/19 02:06:15;;;;;;;8.68;4.18;;;;;;;;;;5091229;28;20232;-46
2023/05/19 02:08:57;;;;;;;8.07;3.97;;;10.40;99.90;;;;;;5070785;28;20252;-47
2023/05/19 02:11:48;;;;;;;7.97;3.72;;;10.30;99.90;;;;;;5070553;28;20717;-46
2023/05/19 02:14:16;;;;;;;6.68;3.60;;;10.30;99.90;;;;;;5070036;28;20162;-46
2023/05/19 02:16:46;;;;;;;7.88;3.83;;;10.30;99.90;;;;;;5074297;28;20566;-48
2023/05/19 02:19:25;;;;;;;10.63;4.20;;;10.40;99.90;;;;;;5091423;28;20169;-46
2023/05/19 02:21:51;;;;;;;4.88;3.53;;;;;;;;;;5090745;28;20165;-46
2023/05/19 02:24:18;;;;;;;8.75;3.97;;;10.20;99.90;;;;;;5078542;28;20181;-45
2023/05/19 02:26:44;;;;;;;8.23;4.10;;;10.20;99.90;;;;;;5070696;28;20528;-46
2023/05/19 02:29:10;;;;;;;12.38;4.30;;;10.00;99.90;;;;;;5070775;28;20170;-47
2023/05/19 02:31:36;;;;;;;7.20;3.83;;;;;;;;;;5086614;28;20205;-46
2023/05/19 02:34:02;;;;;;;8.63;3.70;;;10.20;99.90;;;;;;5090874;28;20170;-45
2023/05/19 02:36:28;;;;;;;7.00;3.67;;;;;;;;;;5090507;28;20537;-46
2023/05/19 02:38:54;;;;;;;7.40;4.05;;;10.20;99.90;;;;;;5090709;28;20169;-46
2023/05/19 02:41:21;;;;;;;5.57;4.20;;;10.20;99.90;;;;;;5072839;28;20185;-45
2023/05/19 02:43:46;;;;;;;6.30;3.78;;;10.20;99.90;;;;;;5070514;28;20185;-47
2023/05/19 02:46:12;;;;;;;6.82;4.15;;;10.10;99.90;;;;;;5069600;28;20174;-46
2023/05/19 02:48:37;;;;;;;6.75;3.58;;;10.10;99.90;;;;;;5070227;28;20185;-46
2023/05/19 02:51:03;;;;;;;7.75;3.85;;;10.10;99.90;;;;;;5070731;28;20209;-47
2023/05/19 02:53:31;;;;;;;7.03;4.00;;;10.10;99.90;;;;;;5070436;28;20174;-46
2023/05/19 02:55:57;;;;;;;5.32;3.78;;;;;;;;;;5069059;28;20186;-45
2023/05/19 02:58:22;;;;;;;11.93;4.22;;;10.10;99.90;;;;;;5070301;28;20264;-45
2023/05/19 03:00:48;;;;;;;8.88;4.20;;;;;;;;;;5079393;28;20256;-45
2023/05/19 03:03:14;;;;;;;10.43;4.97;;;;;;;;;;5090289;28;20248;-47
2023/05/19 03:05:40;;;;;;;10.63;4.05;;;10.00;99.90;;;;;;5090849;28;20213;-45
2023/05/19 03:08:06;;;;;;;6.55;4.20;;;;;;;;;;5090283;28;20173;-46
2023/05/19 03:10:31;;;;;;;4.68;4.03;;;9.90;99.90;;;;;;5089289;28;20588;-45
2023/05/19 03:12:57;;;;;;;12.00;3.97;;;9.90;99.90;;;;;;5076334;28;20217;-45
2023/05/19 03:15:22;;;;;;;8.38;3.80;;;10.00;99.90;;;;;;5079124;28;20553;-46
2023/05/19 03:17:48;;;;;;;5.55;4.07;;;;;;;;;;5086733;28;20266;-46
2023/05/19 03:20:17;;;;;;;7.97;3.83;;;9.90;99.90;;;;;;5089343;28;20166;-46
2023/05/19 03:22:43;;;;;;;5.95;3.90;;;;;;;;;;5074192;28;20258;-47
2023/05/19 03:25:09;;;;;;;9.68;3.70;;;9.80;99.90;;;;;;5073934;28;20701;-47
2023/05/19 03:27:34;;;;;;;12.57;4.03;;;9.80;99.90;;;;;;5072892;28;20335;-47
2023/05/19 03:30:00;;;;;;;8.18;4.68;;;9.80;99.90;;;;;;5072537;28;20623;-46
2023/05/19 03:32:25;;;;;;;6.38;3.80;;;9.80;99.90;;;;;;5078083;28;20679;-47
2023/05/19 03:34:51;;;;;;;7.22;4.68;;;9.70;99.90;;;;;;5093803;28;20187;-45
2023/05/19 03:37:17;;;;;;;9.70;4.40;;;9.80;99.90;;;;;;5093736;28;20244;-46
2023/05/19 03:39:42;;;;;;;14.15;4.53;;;9.70;99.90;;;;;;5094038;28;20544;-45
2023/05/19 03:42:08;;;;;;;8.93;4.20;;;;;;;;;;5093982;28;20201;-46
2023/05/19 03:44:34;;;;;;;6.43;4.57;;;9.60;99.90;;;;;;5082465;28;20188;-46
2023/05/19 03:46:59;;;;;;;7.72;4.00;;;9.70;99.90;;;;;;5088397;28;20188;-46
2023/05/19 03:49:25;;;;;;;9.63;4.60;;;;;;;;;;5089345;28;20689;-46
2023/05/19 03:51:51;;;;;;;6.88;4.25;;;9.70;99.90;;;;;;5093334;28;20281;-45
2023/05/19 03:54:17;;;;;;;7.28;4.45;;;9.70;99.90;;;;;;5093193;28;20161;-45
2023/05/19 03:56:43;;;;;;;7.03;4.43;;;;;;;;;;5093400;28;20165;-45
2023/05/19 03:59:09;;;;;;;12.43;4.55;;;9.80;99.90;;;;;;5093530;28;20645;-45
2023/05/19 04:01:35;;;;;;;11.02;5.40;;;9.70;99.90;;;;;;5080508;28;20251;-45
2023/05/19 04:04:01;;;;;;;9.05;4.63;;;9.80;99.90;;;;;;5070507;28;20178;-45
2023/05/19 04:06:27;;;;;;;11.30;4.72;;;;;;;;;;5072284;28;20686;-45
2023/05/19 04:08:53;;;;;;;10.95;4.43;;;;;;;;;;5070864;28;20180;-45
2023/05/19 04:11:20;;;;;;;9.57;4.30;;;9.70;99.90;;;;;;5077503;28;20258;-45
2023/05/19 04:13:46;;;;;;;9.05;4.47;;;9.70;99.90;;;;;;5078110;28;20182;-45
2023/05/19 04:16:11;;;;;;;9.20;4.80;;;9.80;99.90;;;;;;5072489;28;20196;-45
2023/05/19 04:18:37;;;;;;;11.40;4.72;;;;;;;;;;5072169;28;20173;-46
2023/05/19 04:21:03;;;;;;;8.10;4.95;;;9.80;99.90;;;;;;5070072;28;20268;-47
2023/05/19 04:23:29;;;;;;;11.57;4.88;;;;;;;;;;5069868;28;20170;-47
2023/05/19 04:25:56;;;;;;;7.38;4.85;;;9.90;99.90;;;;;;5053048;28;20653;-45
2023/05/19 04:28:22;;;;;;;9.05;4.82;;;;;;;;;;5060672;28;20253;-45
2023/05/19 04:30:49;;;;;;;9.68;4.97;;;9.80;99.90;;;;;;5069808;28;20304;-45
2023/05/19 04:33:15;;;;;;;9.40;4.85;;;9.80;99.90;;;;;;5070382;28;20726;-45
2023/05/19 04:35:40;;;;;;;6.60;4.43;;;9.80;99.90;;;;;;5071234;28;20244;-45
2023/05/19 04:38:06;;;;;;;5.95;4.00;;;9.90;99.90;;;;;;5069980;28;20178;-45
2023/05/19 04:40:31;;;;;;;6.88;4.00;;;10.00;99.90;;;;;;5067968;28;20193;-44
2023/05/19 04:43:00;;;;;;;9.13;4.30;;;;;;;;;;5069314;28;20663;-45
2023/05/19 04:45:26;;;;;;;6.60;4.00;;;10.30;99.90;;;;;;5069983;28;20257;-45
2023/05/19 04:47:56;;;;;;;9.85;5.03;;;10.40;99.90;;;;;;5069248;28;20603;-45
2023/05/19 04:50:22;;;;;;;7.88;4.40;;;10.40;99.90;;;;;;5069621;28;20178;-45
2023/05/19 04:52:48;;;;;;;8.02;4.30;;;10.40;99.90;;;;;;5071323;28;20212;-52
2023/05/19 04:55:14;;;;;;;9.88;4.85;;;;;;;;;;5070212;28;20554;-45
2023/05/19 04:57:40;;;;;;;8.38;4.43;;;10.50;99.90;;;;;;5070470;28;20174;-45
2023/05/19 05:00:08;;;;;;;9.52;4.18;;;10.60;99.90;;;;;;5071445;28;20184;-45
2023/05/19 05:02:34;;;;;;;6.70;4.10;;;10.70;99.90;;;;;;5070142;28;20174;-45
2023/05/19 05:04:59;;;;;;;11.85;3.80;;;10.80;99.90;;;;;;5070267;28;20185;-45
2023/05/19 05:07:25;;;;;;;8.43;3.80;;;10.90;99.90;;;;;;5070616;28;20210;-44
2023/05/19 05:09:51;;;;;;;6.80;3.92;;;11.00;99.90;;;;;;5071506;28;20174;-45
2023/05/19 05:12:17;;;;;;;8.80;3.92;;;11.20;99.90;;;;;;5070297;28;20304;-45
2023/05/19 05:14:43;;;;;;;10.23;4.70;;;;;;;;;;5071147;28;20354;-45
2023/05/19 05:17:11;;;;;;;6.53;4.35;;;11.50;99.90;;;;;;5070145;28;20235;-45
2023/05/19 05:19:37;;;;;;;8.63;3.85;;;11.40;99.90;;;;;;5071722;28;20181;-44
2023/05/19 05:22:03;;;;;;;8.77;4.13;;;11.50;99.90;;;;;;5071657;28;20174;-51
2023/05/19 05:24:30;;;;;;;8.68;4.03;;;11.70;99.90;;;;;;5069751;28;20225;-45
2023/05/19 05:26:57;;;;;;;9.32;4.30;;;;;;;;;;5069707;28;20173;-45
2023/05/19 05:29:23;;;;;;;7.95;4.05;;;11.50;99.90;;;;;;5071511;28;20326;-45
2023/05/19 05:31:49;;;;;;;7.72;3.75;;;11.60;99.90;;;;;;5071318;28;20650;-45
2023/05/19 05:34:15;;;;;;;8.88;4.20;;;11.60;99.90;;;;;;5068581;28;20181;-45
2023/05/19 05:36:40;;;;;;;10.15;5.45;;;11.70;99.90;;;;;;5076258;28;20178;-45
2023/05/19 05:39:06;;;;;;;8.52;4.22;;;11.70;99.90;;;;;;5069159;28;20184;-45
2023/05/19 05:41:34;;;;;;;12.05;5.20;;;11.90;99.90;;;;;;5069851;28;20174;-45
2023/05/19 05:44:04;;;;;;;10.07;4.10;;;12.00;99.90;;;;;;5071218;28;20173;-45
2023/05/19 05:46:31;;;;;;;8.80;3.97;;;12.20;99.90;;;;;;5070970;28;20650;-45
2023/05/19 05:48:57;;;;;;;8.65;4.20;;;;;;;;;;5076672;28;20181;-46
2023/05/19 05:51:23;;;;;;;8.80;4.25;;;;;;;;;;5069003;28;20543;-51
2023/05/19 05:53:52;;;;;;;7.47;4.50;;;12.20;99.90;;;;;;5064700;28;20182;-49
2023/05/19 05:56:18;;;;;;;8.80;4.63;;;12.20;99.90;;;;;;5071032;28;20250;-48
2023/05/19 05:58:44;;;;;;;12.55;4.38;;;12.30;99.90;;;;;;5070759;28;20264;-52
2023/05/19 06:01:10;;;;;;;8.48;4.03;;;12.20;99.90;;;;;;5071034;28;20166;-51
2023/05/19 06:03:41;;;;;;;7.65;4.00;;;12.40;99.90;;;;;;5070771;28;20211;-51
2023/05/19 06:06:07;;;;;;;7.13;4.32;;;12.70;99.90;;;;;;5070145;28;20248;-51
2023/05/19 06:08:33;;;;;;;8.15;4.35;;;12.60;99.90;;;;;;5069230;28;20201;-45
2023/05/19 06:10:59;;;;;;;9.20;4.25;;;;;;;;;;5069631;28;20177;-46
2023/05/19 06:13:24;;;;;;;10.38;4.22;;;12.70;99.90;;;;;;5070729;28;20174;-50
2023/05/19 06:15:51;;;;;;;13.88;4.05;;;12.80;99.90;;;;;;5068725;28;20185;-51
2023/05/19 06:18:17;;;;;;;9.27;4.78;;;12.90;99.90;;;;;;5067961;28;20178;-45
2023/05/19 06:20:43;;;;;;;10.50;4.25;;;12.90;99.90;;;;;;5070942;28;20639;-46
2023/05/19 06:23:08;;;;;;;6.32;3.42;;;13.10;99.90;;;;;;5070728;28;20263;-45
2023/05/19 06:25:34;;;;;;;6.57;3.20;;;13.10;99.90;;;;;;5069713;28;20642;-47
2023/05/19 06:28:00;;;;;;;13.52;3.78;;;13.20;99.90;;;;;;5070593;28;20627;-46
2023/05/19 06:30:26;;;;;;;7.78;3.35;;;13.20;99.90;;;;;;5070611;28;20166;-45
2023/05/19 06:32:52;;;;;;;6.93;3.03;;;;;;;;;;5069237;28;20262;-45
2023/05/19 06:35:18;;;;;;;4.95;3.00;;;;;;;;;;5069556;28;20173;-46
2023/05/19 06:37:44;;;;;;;10.25;3.65;;;;;;;;;;5064693;28;20209;-46
2023/05/19 06:40:10;;;;;;;15.35;3.55;;;13.40;99.90;;;;;;5068881;28;20182;-46
2023/05/19 06:42:35;;;;;;;7.63;3.22;;;13.70;99.90;;;;;;5069932;28;20277;-46
2023/05/19 06:45:01;;;;;;;5.68;3.00;;;;;;;;;;5069686;28;20177;-47
2023/05/19 06:47:27;;;;;;;7.78;2.78;;;13.60;99.90;;;;;;5071578;28;20188;-48
2023/05/19 06:49:55;;;;;;;8.35;3.03;;;13.80;99.90;;;;;;5074184;28;20177;-46
2023/05/19 06:52:21;;;;;;;6.43;2.80;;;13.90;99.90;;;;;;5073129;28;20267;-46
2023/05/19 06:54:48;;;;;;;6.18;2.55;;;14.00;99.90;;;;;;5072114;28;20177;-46
2023/05/19 06:57:14;;;;;;;7.78;2.88;;;;;;;;;;5071689;28;20170;-46
2023/05/19 06:59:42;;;;;;;7.38;2.70;;;;;;;;;;5071880;28;20166;-46
2023/05/19 07:02:08;;;;;;;3.60;2.47;;;;;;;;;;5072540;28;20223;-47
2023/05/19 07:04:33;;;;;;;6.10;2.55;;;14.20;99.90;;;;;;5070748;28;20162;-46
2023/05/19 07:07:00;;;;;;;6.93;3.20;;;;;;;;;;5071767;28;20591;-46
2023/05/19 07:09:25;;;;;;;4.25;2.63;;;14.20;99.90;;;;;;5073686;28;20173;-46
2023/05/19 07:11:51;;;;;;;4.65;2.70;;;;;;;;;;5073701;28;20205;-47
2023/05/19 07:14:17;;;;;;;5.50;2.47;;;14.40;99.90;;;;;;5072954;28;20180;-47
2023/05/19 07:16:42;;;;;;;6.05;2.90;;;14.50;99.90;;;;;;5073683;28;20170;-46
2023/05/19 07:19:08;;;;;;;6.43;2.83;;;;;;;;;;5074082;28;20170;-46
2023/05/19 07:21:34;;;;;;;7.32;2.88;;;14.90;99.90;;;;;;5073580;28;20166;-46
2023/05/19 07:24:00;;;;;;;10.65;3.13;;;14.90;99.90;;;;;;5073683;28;20189;-46
2023/05/19 07:26:26;;;;;;;5.95;2.80;;;14.70;99.90;;;;;;5073635;28;20204;-45
2023/05/19 07:28:51;;;;;;;6.57;2.83;;;14.80;99.90;;;;;;5073425;28;20170;-46
2023/05/19 07:31:17;;;;;;;7.45;3.00;;;14.80;99.90;;;;;;5072464;28;20206;-45
2023/05/19 07:33:43;;;;;;;8.48;2.70;;;15.10;99.90;;;;;;5073736;28;20531;-46
2023/05/19 07:36:08;;;;;;;7.80;2.60;;;15.10;99.90;;;;;;5073832;28;20220;-46
2023/05/19 07:38:34;;;;;;;4.38;2.03;;;15.10;99.90;;;;;;5073304;28;20186;-46
2023/05/19 07:41:01;;;;;;;10.63;2.67;;;15.10;99.90;;;;;;5073488;28;20268;-46
2023/05/19 07:43:27;;;;;;;11.30;2.83;;;;;;;;;;5071983;28;20182;-46
2023/05/19 07:45:54;;;;;;;9.45;2.78;;;15.30;99.90;;;;;;5073198;28;20170;-47
2023/05/19 07:48:21;;;;;;;3.75;2.25;;;15.50;99.90;;;;;;5073145;28;20301;-47
2023/05/19 07:50:47;;;;;;;6.05;2.92;;;15.80;99.90;;;;;;5073122;28;20158;-47
2023/05/19 07:53:13;;;;;;;8.20;2.63;;;15.70;99.90;;;;;;5075541;28;20258;-46
2023/05/19 07:55:39;;;;;;;5.68;2.30;;;15.70;99.90;;;;;;5071645;28;20182;-46
2023/05/19 07:58:05;;;;;;;5.15;2.22;;;15.80;99.90;;;;;;5073088;28;20174;-46
2023/05/19 08:00:31;;;;;;;6.22;2.45;;;;;;;;;;5071380;28;20181;-45
2023/05/19 08:02:57;;;;;;;6.15;2.30;;;15.90;99.90;;;;;;5071947;28;20184;-47
2023/05/19 08:05:24;;;;;;;12.13;2.67;;;16.00;99.90;;;;;;5071354;28;20174;-51
2023/05/19 08:07:51;;;;;;;4.68;2.33;;;16.00;99.90;;;;;;5071140;28;20186;-46
2023/05/19 08:10:17;;;;;;;7.15;2.40;;;16.20;99.90;;;;;;5072210;28;20184;-49
2023/05/19 08:12:43;;;;;;;7.28;2.50;;;16.50;99.90;;;;;;5073125;28;20722;-45
2023/05/19 08:15:10;;;;;;;5.40;2.28;;;;;;;;;;5072470;28;20178;-45
2023/05/19 08:17:36;;;;;;;10.18;3.30;;;16.40;99.90;;;;;;5073180;28;20264;-46
2023/05/19 08:20:04;;;;;;;5.03;2.42;;;16.70;99.90;;;;;;5073034;28;20643;-46
2023/05/19 08:22:29;;;;;;;4.63;2.20;;;16.60;99.90;;;;;;5072823;28;20650;-45
2023/05/19 08:24:55;;;;;;;5.97;2.00;;;;;;;;;;5071906;28;20174;-46
2023/05/19 08:27:21;;;;;;;4.90;2.78;;;16.90;99.90;;;;;;5073450;28;20256;-46
2023/05/19 08:29:47;;;;;;;7.22;2.30;;;;;;;;;;5077104;28;20209;-46
2023/05/19 08:32:13;;;;;;;5.60;2.20;;;16.80;99.90;;;;;;5079165;28;20210;-46
2023/05/19 08:34:38;;;;;;;5.18;2.17;;;16.80;99.90;;;;;;5077556;28;20173;-45
2023/05/19 08:37:04;;;;;;;6.60;2.45;;;16.90;99.90;;;;;;5085387;28;20174;-46
2023/05/19 08:39:32;;;;;;;5.78;2.50;;;17.10;99.90;;;;;;5069549;28;20227;-46
2023/05/19 08:41:58;;;;;;;7.13;2.80;;;17.40;99.90;;;;;;5069802;28;20675;-46
2023/05/19 08:44:24;;;;;;;5.53;2.55;;;;;;;;;;5073426;28;20323;-47
2023/05/19 08:46:53;;;;;;;5.45;2.00;;;17.10;99.90;;;;;;5064236;28;20170;-49
2023/05/19 08:49:30;;;;;;;8.98;2.75;;;17.30;99.90;;;;;;5070342;28;20227;-50
2023/05/19 08:52:04;;;;;;;5.28;2.20;;;17.30;99.90;;;;;;5068403;28;20332;-50
2023/05/19 08:55:15;;;;;;;5.82;2.17;;;17.50;99.90;;;;;;5067554;28;20173;-51
2023/05/19 08:57:55;;;;;;;4.80;2.47;;;17.60;99.90;;;;;;5071253;28;20213;-48
2023/05/19 09:00:22;;;;;;;10.82;2.60;;;17.70;99.90;;;;;;5071754;28;20173;-50
2023/05/19 09:02:50;;;;;;;6.55;2.40;;;17.60;99.90;;;;;;5072295;28;20550;-52
2023/05/19 09:05:17;;;;;;;5.38;2.55;;;17.70;99.80;;;;;;5064498;28;20177;-45
2023/05/19 09:07:44;;;;;;;3.88;2.25;;;17.90;99.90;;;;;;5066338;28;20249;-46
2023/05/19 09:10:15;;;;;;;6.57;2.30;;;18.20;99.90;;;;;;5075458;28;20276;-46
2023/05/19 09:12:46;;;;;;;6.18;2.50;;;18.20;99.90;;;;;;5070635;28;20287;-45
2023/05/19 09:15:15;;;;;;;5.75;2.92;;;18.30;99.90;;;;;;5075676;28;20174;-46
2023/05/19 09:17:43;;;;;;;13.05;3.13;;;18.30;99.90;;;;;;5070090;28;20174;-46
2023/05/19 09:20:12;;;;;;;5.65;2.38;;;18.50;99.90;;;;;;5092079;28;20701;-46
2023/05/19 09:22:47;;;;;;;4.80;2.08;;;18.60;99.20;;;;;;5077726;28;20209;-46
2023/05/19 09:25:26;;;;;;;6.28;2.80;;;18.60;99.00;;;;;;5090316;28;20185;-46
2023/05/19 09:27:56;;;;;;;6.82;2.40;;;18.80;99.30;;;;;;5072283;28;20184;-45
2023/05/19 09:30:23;;;;;;;8.13;2.30;;;19.00;99.20;;;;;;5070201;28;20166;-46
2023/05/19 09:32:50;;;;;;;7.18;2.60;;;18.90;98.40;;;;;;5084305;28;20206;-46
2023/05/19 09:35:23;;;;;;;7.18;2.38;;;19.00;97.40;;;;;;5065397;28;20170;-46
2023/05/19 09:37:49;;;;;;;9.60;2.85;;;;;;;;;;5069302;28;20777;-46
2023/05/19 09:40:19;;;;;;;7.55;2.53;;;18.80;96.10;;;;;;5070248;28;20185;-46
2023/05/19 09:42:59;;;;;;;8.63;2.47;;;19.00;96.80;;;;;;5070924;28;20299;-45
2023/05/19 09:45:29;;;;;;;4.95;2.20;;;19.50;97.30;;;;;;5071754;28;20214;-48
2023/05/19 09:48:11;;;;;;;9.50;3.67;;;19.30;97.70;;;;;;5051448;28;20225;-51
2023/05/19 09:50:44;;;;;;;7.63;2.60;;;19.30;95.80;;;;;;5055124;28;20189;-45
2023/05/19 09:53:19;;;;;;;5.90;2.63;;;19.40;95.90;;;;;;5082091;28;20220;-46
2023/05/19 09:55:45;;;;;;;6.82;2.17;;;19.50;96.80;;;;;;5062011;28;20178;-48
2023/05/19 09:58:16;;;;;;;5.63;2.97;;;19.50;95.30;;;;;;5070733;28;20178;-46
2023/05/19 10:00:42;;;;;;;5.07;2.70;;;19.50;96.20;;;;;;5061096;28;20185;-49
2023/05/19 10:03:09;;;;;;;5.82;2.40;;;19.60;95.60;;;;;;5051291;28;20186;-51
2023/05/19 10:05:36;;;;;;;5.25;2.10;;;20.10;94.70;;;;;;5051231;28;20229;-49
2023/05/19 10:08:03;;;;;;;6.03;2.38;;;20.30;93.20;;;;;;5087611;28;20193;-46
2023/05/19 10:10:30;;;;;;;8.55;2.72;;;20.40;93.10;;;;;;5071642;28;20170;-50
2023/05/19 10:12:56;;;;;;;7.15;2.63;;;;;;;;;;5069743;28;20236;-48
2023/05/19 10:15:23;;;;;;;9.73;3.65;;;;;;;;;;5085129;28;20205;-46
2023/05/19 10:17:49;;;;;;;6.47;2.50;;;19.70;93.60;;;;;;5070291;28;20178;-49
2023/05/19 10:20:16;;;;;;;6.65;2.55;;;19.70;93.70;;;;;;5070040;28;20162;-50
2023/05/19 10:22:44;;;;;;;4.38;2.20;;;20.10;92.50;;;;;;5072194;28;20635;-48
2023/05/19 10:25:13;;;;;;;4.07;2.00;;;19.60;92.30;;;;;;5072317;28;20162;-50
2023/05/19 10:27:48;;;;;;;8.13;2.80;;;19.50;92.30;;;;;;5074413;28;20177;-47
2023/05/19 10:30:33;;;;;;;8.85;2.50;;;19.70;92.90;;;;;;5083220;28;20178;-47
2023/05/19 10:33:01;;;;;;;9.52;2.75;;;19.80;92.50;;;;;;5095245;28;20212;-46
2023/05/19 10:35:41;;;;;;;6.07;2.95;;;20.20;92.20;;;;;;5095377;28;20210;-45
2023/05/19 10:38:13;;;;;;;5.70;2.13;;;20.20;90.40;;;;;;5095030;28;20226;-50
2023/05/19 10:40:51;;;;;;;6.30;2.58;;;20.00;90.50;;;;;;5094305;28;20157;-46
2023/05/19 10:43:39;;;;;;;3.22;1.90;;;19.80;89.60;;;;;;5077148;28;20170;-48
2023/05/19 10:46:05;;;;;;;5.18;2.80;;;;;;;;;;5072961;28;20273;-46
2023/05/19 10:48:37;;;;;;;6.05;2.40;;;20.50;89.20;;;;;;5071769;28;20173;-47
2023/05/19 10:51:04;;;;;;;5.55;2.05;;;20.70;89.80;;;;;;5073028;28;20482;-49
2023/05/19 10:53:36;;;;;;;5.00;2.40;;;20.80;89.60;;;;;;5067555;28;20189;-51
2023/05/19 10:56:08;;;;;;;6.72;2.22;;;21.00;88.10;;;;;;5061184;28;20592;-48
2023/05/19 10:58:44;;;;;;;6.50;2.42;;;21.20;88.20;;;;;;5072103;28;20186;-50
2023/05/19 11:01:23;;;;;;;6.40;2.17;;;21.30;87.30;;;;;;5074637;28;20170;-46
2023/05/19 11:03:56;;;;;;;4.45;2.20;;;21.20;86.50;;;;;;5065932;28;20173;-46
2023/05/19 11:06:40;;;;;;;7.15;2.45;;;21.30;86.00;;;;;;5072987;28;20564;-46
2023/05/19 11:09:18;;;;;;;7.60;2.28;;;21.80;87.30;;;;;;5090565;28;20265;-47
2023/05/19 11:11:53;;;;;;;5.25;2.47;;;22.00;85.80;;;;;;5074329;28;20212;-46
2023/05/19 11:14:24;;;;;;;6.22;2.10;;;21.30;83.90;;;;;;5078889;28;20539;-46
2023/05/19 11:16:59;;;;;;;3.88;2.13;;;20.90;84.40;;;;;;5072095;28;20581;-47
2023/05/19 11:19:35;;;;;;;4.45;1.90;;;20.90;85.70;;;;;;5070659;28;20177;-46
2023/05/19 11:22:13;;;;;;;6.07;2.47;;;21.40;84.10;;;;;;5068096;28;20177;-47
2023/05/19 11:24:44;;;;;;;6.72;2.45;;;21.60;83.10;;;;;;5087365;28;20185;-46
2023/05/19 11:27:19;;;;;;;6.15;2.13;;;21.40;82.40;;;;;;5070949;28;20189;-51
2023/05/19 11:29:47;;;;;;;5.75;2.50;;;21.60;83.60;;;;;;5075544;28;20172;-50
2023/05/19 11:32:14;;;;;;;5.60;2.30;;;21.90;80.60;;;;;;5089751;28;20728;-51
2023/05/19 11:34:40;;;;;;;5.50;2.53;;;22.00;81.40;;;;;;5092697;28;20154;-49
2023/05/19 11:37:07;;;;;;;11.60;2.38;;;22.00;79.50;;;;;;5086614;28;20234;-47
2023/05/19 11:39:34;;;;;;;4.07;2.45;;;22.10;80.80;;;;;;5072070;28;20257;-47
2023/05/19 11:42:00;;;;;;;4.53;1.98;;;22.30;78.20;;;;;;5088226;28;20181;-46
2023/05/19 11:44:26;;;;;;;5.63;2.30;;;22.50;78.70;;;;;;5091658;28;20177;-50
2023/05/19 11:46:52;;;;;;;5.90;2.20;;;22.10;78.10;;;;;;5093481;28;20218;-47
2023/05/19 11:49:18;;;;;;;8.32;2.25;;;21.70;78.50;;;;;;5093512;28;20161;-46
2023/05/19 11:51:45;;;;;;;5.80;1.90;;;21.60;77.60;;;;;;5071958;28;20198;-50
2023/05/19 11:54:11;;;;;;;11.18;2.58;;;21.30;79.30;;;;;;5077253;28;20310;-46
2023/05/19 11:56:41;;;;;;;4.43;2.20;;;21.50;77.90;;;;;;5073018;28;20253;-48
2023/05/19 11:59:08;;;;;;;4.60;2.00;;;;;;;;;;5053159;28;20660;-46
2023/05/19 12:01:35;;;;;;;4.40;1.80;;;21.40;77.80;;;;;;5080769;28;20211;-46
2023/05/19 12:04:02;;;;;;;9.27;2.47;;;21.70;76.40;;;;;;5088668;28;20578;-46
2023/05/19 12:06:29;;;;;;;4.50;2.22;;;;;;;;;;5074953;28;20213;-46
2023/05/19 12:08:55;;;;;;;7.28;2.35;;;22.20;77.20;;;;;;5082779;28;20170;-50
2023/05/19 12:11:23;;;;;;;7.10;2.20;;;21.90;76.70;;;;;;5073860;28;20554;-46
2023/05/19 12:13:53;;;;;;;3.72;2.17;;;21.80;77.60;;;;;;5089257;28;20177;-50
2023/05/19 12:16:20;;;;;;;3.78;2.00;;;21.90;77.70;;;;;;5092991;28;20170;-47
2023/05/19 12:18:46;;;;;;;6.15;2.70;;;;;;;;;;5073338;28;20258;-46
2023/05/19 12:21:12;;;;;;;8.85;2.85;;;21.70;76.70;;;;;;5084294;28;20185;-47
2023/05/19 12:23:40;;;;;;;5.55;2.78;;;21.50;78.50;;;;;;5060771;28;20174;-47
2023/05/19 12:26:07;;;;;;;6.28;2.00;;;;;;;;;;5073159;28;20206;-48
2023/05/19 12:28:33;;;;;;;5.65;2.55;;;;;;;;;;5059188;28;22568;-47
2023/05/19 12:30:59;;;;;;;4.50;1.80;;;22.10;80.20;;;;;;5069250;28;20542;-46
2023/05/19 12:33:25;;;;;;;5.93;2.35;;;;;;;;;;5079944;28;20181;-46
2023/05/19 12:35:50;;;;;;;4.82;2.40;;;22.80;78.70;;;;;;5066106;28;20174;-45
2023/05/19 12:38:18;;;;;;;5.50;2.25;;;22.70;75.40;;;;;;5077939;28;20228;-46
2023/05/19 12:40:44;;;;;;;6.45;2.25;;;22.80;77.70;;;;;;5075748;28;20183;-45
2023/05/19 12:43:22;;;;;;;4.47;2.58;;;22.60;78.20;;;;;;5083422;28;20252;-46
2023/05/19 12:45:48;;;;;;;10.02;2.30;;;22.10;79.20;;;;;;5080690;28;20209;-45
2023/05/19 12:48:17;;;;;;;5.63;2.50;;;21.70;79.50;;;;;;5071905;28;20583;-45
2023/05/19 12:50:43;;;;;;;4.70;2.25;;;21.60;81.40;;;;;;5061782;28;20189;-45
2023/05/19 12:53:13;;;;;;;9.20;2.75;;;21.90;80.10;;;;;;5071987;28;20202;-46
2023/05/19 12:55:43;;;;;;;4.88;2.15;;;22.30;83.00;;;;;;5072021;28;20173;-46
2023/05/19 12:58:14;;;;;;;3.55;2.05;;;22.50;80.80;;;;;;5076737;28;20174;-45
2023/05/19 13:00:48;;;;;;;5.47;2.50;;;22.40;78.30;;;;;;5069060;28;20170;-45
2023/05/19 13:03:15;;;;;;;5.63;2.20;;;22.40;77.70;;;;;;5065509;28;20182;-46
2023/05/19 13:05:43;;;;;;;9.18;2.60;;;22.30;75.50;;;;;;5089394;28;20197;-46
2023/05/19 13:08:09;;;;;;;9.93;2.25;;;;;;;;;;5084691;28;20264;-46
2023/05/19 13:10:35;;;;;;;4.57;2.10;;;22.50;80.00;;;;;;5082015;28;20252;-45
2023/05/19 13:13:02;;;;;;;3.92;1.95;;;;;;;;;;5086979;28;20206;-45